createdAt,value
2023-05-09T00:00:03.840Z,13.1808
2023-05-09T00:01:06.902Z,13.1734
2023-05-09T00:02:09.882Z,13.1378
2023-05-09T00:03:12.982Z,13.1119
2023-05-09T00:04:16.004Z,13.0947
2023-05-09T00:05:19.007Z,13.0764
2023-05-09T00:06:21.972Z,13.0665
2023-05-09T00:07:24.961Z,13.0427
2023-05-09T00:08:27.967Z,13.0597
2023-05-09T00:09:30.971Z,13.0529
2023-05-09T00:10:33.985Z,13.0405
2023-05-09T00:11:37.052Z,13.0453
2023-05-09T00:12:40.088Z,13.0387
2023-05-09T00:13:43.061Z,13.0253
2023-05-09T00:14:46.059Z,13.0110
2023-05-09T00:15:49.030Z,13.0028
2023-05-09T00:16:52.125Z,12.9863
2023-05-09T00:17:55.119Z,12.9639
2023-05-09T00:18:58.130Z,12.9574
2023-05-09T00:20:01.112Z,12.9224
2023-05-09T00:21:04.108Z,12.9298
2023-05-09T00:22:07.163Z,12.9688
2023-05-09T00:23:10.129Z,12.9746
2023-05-09T00:24:13.122Z,12.9824
2023-05-09T00:25:16.332Z,12.9776
2023-05-09T00:26:19.463Z,12.9640
2023-05-09T00:27:22.472Z,13.0159
2023-05-09T00:28:25.450Z,13.0225
2023-05-09T00:29:28.437Z,13.0063
2023-05-09T00:30:31.407Z,13.0184
2023-05-09T00:31:34.421Z,12.9868
2023-05-09T00:32:37.400Z,12.9841
2023-05-09T00:33:40.424Z,13.0475
2023-05-09T00:34:43.443Z,13.1331
2023-05-09T00:35:46.369Z,13.1246
2023-05-09T00:36:49.383Z,13.0649
2023-05-09T00:37:52.340Z,13.0523
2023-05-09T00:38:55.294Z,13.0394
2023-05-09T00:39:58.274Z,12.9364
2023-05-09T00:41:01.253Z,12.8319
2023-05-09T00:42:04.226Z,12.8016
2023-05-09T00:43:07.219Z,12.6945
2023-05-09T00:44:10.190Z,12.6456
2023-05-09T00:45:13.316Z,12.6211
2023-05-09T00:46:16.532Z,12.6207
2023-05-09T00:47:19.601Z,12.6152
2023-05-09T00:48:22.583Z,12.6293
2023-05-09T00:49:25.575Z,12.6312
2023-05-09T00:50:28.583Z,12.6978
2023-05-09T00:51:31.525Z,12.7518
2023-05-09T00:52:34.558Z,12.7217
2023-05-09T00:53:37.537Z,12.7253
2023-05-09T00:54:40.550Z,12.6813
2023-05-09T00:55:43.617Z,12.6161
2023-05-09T00:56:46.564Z,12.6329
2023-05-09T00:57:49.531Z,12.5874
2023-05-09T00:58:52.521Z,12.5511
2023-05-09T00:59:55.516Z,12.5742
2023-05-09T01:00:58.837Z,12.6141
2023-05-09T01:02:01.837Z,12.6926
2023-05-09T01:03:04.920Z,12.6530
2023-05-09T01:04:07.938Z,12.5790
2023-05-09T01:05:10.965Z,12.6323
2023-05-09T01:06:13.965Z,12.6343
2023-05-09T01:07:16.942Z,12.7184
2023-05-09T01:08:19.894Z,12.7925
2023-05-09T01:09:23.138Z,12.7487
2023-05-09T01:10:26.127Z,12.7258
2023-05-09T01:11:29.134Z,12.7091
2023-05-09T01:12:32.114Z,12.6486
2023-05-09T01:13:35.138Z,12.6614
2023-05-09T01:14:38.142Z,12.6259
2023-05-09T01:15:41.200Z,12.6028
2023-05-09T01:16:44.151Z,12.6053
2023-05-09T01:17:47.161Z,12.5566
2023-05-09T01:18:50.109Z,12.5399
2023-05-09T01:19:53.079Z,12.5511
2023-05-09T01:20:56.064Z,12.6293
2023-05-09T01:21:59.088Z,12.6204
2023-05-09T01:23:02.017Z,12.5869
2023-05-09T01:24:05.005Z,12.5734
2023-05-09T01:25:08.227Z,12.5825
2023-05-09T01:26:11.203Z,12.5721
2023-05-09T01:27:14.229Z,12.5432
2023-05-09T01:28:17.189Z,12.5123
2023-05-09T01:29:20.427Z,12.4325
2023-05-09T01:30:23.449Z,12.3645
2023-05-09T01:31:26.506Z,12.3792
2023-05-09T01:32:29.514Z,12.3763
2023-05-09T01:33:32.459Z,12.3890
2023-05-09T01:34:35.461Z,12.4220
2023-05-09T01:35:38.428Z,12.4009
2023-05-09T01:36:41.388Z,12.3788
2023-05-09T01:37:44.405Z,12.3450
2023-05-09T01:38:47.341Z,12.3269
2023-05-09T01:39:50.348Z,12.3632
2023-05-09T01:40:53.362Z,12.3780
2023-05-09T01:41:56.899Z,12.3709
2023-05-09T01:42:59.889Z,12.3321
2023-05-09T01:44:02.910Z,12.2553
2023-05-09T01:45:06.220Z,12.2143
2023-05-09T01:46:09.218Z,12.0464
2023-05-09T01:47:12.415Z,11.8684
2023-05-09T01:48:15.416Z,11.9325
2023-05-09T01:49:19.167Z,11.9206
2023-05-09T01:50:22.141Z,11.8458
2023-05-09T01:51:25.109Z,11.8840
2023-05-09T01:52:28.098Z,11.9873
2023-05-09T01:53:31.120Z,12.1951
2023-05-09T01:54:34.073Z,12.2366
2023-05-09T01:55:37.061Z,12.1917
2023-05-09T01:56:40.043Z,12.1034
2023-05-09T01:57:43.052Z,12.0853
2023-05-09T01:58:46.005Z,12.0736
2023-05-09T01:59:49.230Z,12.0431
2023-05-09T02:00:52.249Z,12.0150
2023-05-09T02:01:55.886Z,12.0651
2023-05-09T02:02:58.920Z,12.0976
2023-05-09T02:04:01.919Z,12.0417
2023-05-09T02:05:04.924Z,12.0425
2023-05-09T02:06:07.648Z,11.8383
2023-05-09T02:07:10.845Z,11.7905
2023-05-09T02:08:13.826Z,11.8105
2023-05-09T02:09:16.850Z,11.9204
2023-05-09T02:11:20.065Z,11.9578
2023-05-09T02:11:20.065Z,11.9919
2023-05-09T02:12:23.048Z,12.1848
2023-05-09T02:13:26.078Z,12.1386
2023-05-09T02:14:29.124Z,12.0491
2023-05-09T02:15:32.113Z,12.0682
2023-05-09T02:16:35.156Z,12.1669
2023-05-09T02:17:38.159Z,12.1766
2023-05-09T02:18:41.100Z,12.2460
2023-05-09T02:19:42.415Z,12.2847
2023-05-09T02:20:45.483Z,12.2933
2023-05-09T02:21:48.424Z,12.2850
2023-05-09T02:22:51.662Z,12.2468
2023-05-09T02:23:54.638Z,12.1519
2023-05-09T02:24:57.983Z,12.1092
2023-05-09T02:26:00.931Z,12.0945
2023-05-09T02:27:04.292Z,12.1117
2023-05-09T02:28:07.297Z,12.1158
2023-05-09T02:29:10.300Z,12.1257
2023-05-09T02:30:13.496Z,12.1538
2023-05-09T02:31:16.508Z,12.1614
2023-05-09T02:32:19.752Z,12.1878
2023-05-09T02:33:22.724Z,12.2476
2023-05-09T02:34:25.693Z,12.2636
2023-05-09T02:35:28.694Z,12.3566
2023-05-09T02:36:31.684Z,12.4182
2023-05-09T02:37:34.938Z,12.4370
2023-05-09T02:38:37.925Z,12.4674
2023-05-09T02:39:41.028Z,12.4121
2023-05-09T02:40:44.061Z,12.3645
2023-05-09T02:41:47.013Z,12.3244
2023-05-09T02:42:49.997Z,12.3018
2023-05-09T02:43:53.023Z,12.3313
2023-05-09T02:44:55.940Z,12.2762
2023-05-09T02:45:58.992Z,12.2632
2023-05-09T02:47:01.919Z,12.1801
2023-05-09T02:48:07.640Z,12.1197
2023-05-09T02:49:07.874Z,12.2285
2023-05-09T02:50:11.201Z,12.2107
2023-05-09T02:51:14.206Z,12.2184
2023-05-09T02:52:17.193Z,12.1205
2023-05-09T02:53:20.156Z,11.9300
2023-05-09T02:54:23.135Z,11.9983
2023-05-09T02:55:26.152Z,12.1595
2023-05-09T02:56:29.168Z,12.1262
2023-05-09T02:57:32.124Z,12.1677
2023-05-09T02:58:35.102Z,12.2198
2023-05-09T02:59:38.061Z,12.3005
2023-05-09T03:00:41.067Z,12.3978
2023-05-09T03:01:44.107Z,12.4075
2023-05-09T03:02:47.164Z,12.4217
2023-05-09T03:03:50.180Z,12.4009
2023-05-09T03:04:53.127Z,12.4074
2023-05-09T03:05:56.105Z,12.3968
2023-05-09T03:06:59.112Z,12.3616
2023-05-09T03:08:02.097Z,12.2831
2023-05-09T03:09:05.111Z,12.2451
2023-05-09T03:10:08.075Z,12.2720
2023-05-09T03:11:11.069Z,12.2047
2023-05-09T03:12:14.094Z,12.1372
2023-05-09T03:13:17.104Z,12.0376
2023-05-09T03:14:20.082Z,11.9294
2023-05-09T03:15:23.082Z,11.8456
2023-05-09T03:16:26.055Z,11.8601
2023-05-09T03:17:26.635Z,11.8885
2023-05-09T03:18:29.613Z,12.0081
2023-05-09T03:19:32.617Z,12.1058
2023-05-09T03:20:35.958Z,12.1622
2023-05-09T03:21:38.934Z,12.1904
2023-05-09T03:22:41.915Z,12.2002
2023-05-09T03:23:44.942Z,12.1889
2023-05-09T03:24:48.002Z,12.2033
2023-05-09T03:25:51.318Z,12.2423
2023-05-09T03:26:54.315Z,12.2349
2023-05-09T03:27:57.375Z,12.2061
2023-05-09T03:29:00.318Z,12.2002
2023-05-09T03:30:03.341Z,12.2098
2023-05-09T03:31:06.462Z,12.2536
2023-05-09T03:32:09.481Z,12.2817
2023-05-09T03:33:13.004Z,12.3020
2023-05-09T03:34:16.006Z,12.3268
2023-05-09T03:35:19.000Z,12.3346
2023-05-09T03:36:21.974Z,12.3078
2023-05-09T03:37:26.901Z,12.3054
2023-05-09T03:38:26.778Z,12.3118
2023-05-09T03:39:29.770Z,12.2866
2023-05-09T03:40:32.986Z,12.2690
2023-05-09T03:41:35.983Z,12.2413
2023-05-09T03:42:39.213Z,12.1991
2023-05-09T03:43:42.274Z,12.1548
2023-05-09T03:44:45.245Z,12.1362
2023-05-09T03:45:48.292Z,12.1284
2023-05-09T03:46:51.357Z,12.1221
2023-05-09T03:47:54.087Z,12.1354
2023-05-09T03:48:57.094Z,12.1447
2023-05-09T03:50:00.114Z,12.1377
2023-05-09T03:51:03.112Z,12.1554
2023-05-09T03:52:06.154Z,12.1865
2023-05-09T03:53:09.175Z,12.1683
2023-05-09T03:54:12.191Z,12.1556
2023-05-09T03:55:15.348Z,12.1978
2023-05-09T03:56:18.759Z,12.2314
2023-05-09T03:57:21.778Z,12.2432
2023-05-09T03:58:24.794Z,12.2372
2023-05-09T03:59:27.845Z,12.2635
2023-05-09T04:00:30.804Z,12.2636
2023-05-09T04:01:33.827Z,12.1419
2023-05-09T04:02:36.915Z,12.1727
2023-05-09T04:03:40.169Z,12.2192
2023-05-09T04:04:43.170Z,12.2360
2023-05-09T04:05:46.181Z,12.2779
2023-05-09T04:06:49.194Z,12.3122
2023-05-09T04:07:52.206Z,12.3299
2023-05-09T04:08:55.205Z,12.3434
2023-05-09T04:09:58.214Z,12.3711
2023-05-09T04:11:01.474Z,12.3690
2023-05-09T04:12:04.499Z,12.3684
2023-05-09T04:13:07.592Z,12.3741
2023-05-09T04:14:10.567Z,12.3742
2023-05-09T04:15:13.954Z,12.3706
2023-05-09T04:16:17.066Z,12.3811
2023-05-09T04:17:20.046Z,12.3884
2023-05-09T04:18:23.062Z,12.4061
2023-05-09T04:19:26.114Z,12.4337
2023-05-09T04:20:29.122Z,12.4568
2023-05-09T04:21:32.152Z,12.4729
2023-05-09T04:22:35.174Z,12.4999
2023-05-09T04:23:36.161Z,12.5119
2023-05-09T04:24:39.160Z,12.5220
2023-05-09T04:25:42.420Z,12.5299
2023-05-09T04:26:45.458Z,12.5380
2023-05-09T04:27:48.466Z,12.5599
2023-05-09T04:28:51.499Z,12.5842
2023-05-09T04:29:54.494Z,12.6072
2023-05-09T04:30:57.740Z,12.6315
2023-05-09T04:32:00.845Z,12.6221
2023-05-09T04:33:03.870Z,12.5957
2023-05-09T04:34:06.886Z,12.6263
2023-05-09T04:35:09.888Z,12.6678
2023-05-09T04:36:12.930Z,12.6920
2023-05-09T04:37:15.951Z,12.7209
2023-05-09T04:38:18.976Z,12.7770
2023-05-09T04:39:21.963Z,12.7818
2023-05-09T04:40:26.857Z,12.7701
2023-05-09T04:41:26.505Z,12.7609
2023-05-09T04:42:29.540Z,12.7917
2023-05-09T04:43:32.607Z,12.7836
2023-05-09T04:44:35.606Z,12.8088
2023-05-09T04:45:36.748Z,12.8120
2023-05-09T04:46:39.855Z,12.8002
2023-05-09T04:47:42.874Z,12.7793
2023-05-09T04:48:45.879Z,12.7848
2023-05-09T04:49:48.884Z,12.8219
2023-05-09T04:50:51.955Z,12.8706
2023-05-09T04:51:54.982Z,12.9067
2023-05-09T04:52:58.035Z,12.8714
2023-05-09T04:54:01.092Z,12.9466
2023-05-09T04:55:04.106Z,12.9771
2023-05-09T04:56:07.150Z,12.9606
2023-05-09T04:57:17.244Z,12.9375
2023-05-09T04:58:11.701Z,12.9668
2023-05-09T04:59:14.734Z,12.9802
2023-05-09T05:00:17.760Z,13.0358
2023-05-09T05:01:20.781Z,13.0547
2023-05-09T05:02:23.825Z,13.1082
2023-05-09T05:03:26.871Z,13.1109
2023-05-09T05:04:29.893Z,13.1053
2023-05-09T05:06:35.988Z,13.0861
2023-05-09T05:07:39.028Z,13.0858
2023-05-09T05:08:42.066Z,13.0698
2023-05-09T05:09:45.079Z,13.0770
2023-05-09T05:10:48.119Z,13.1092
2023-05-09T05:12:00.829Z,13.1604
2023-05-09T05:12:52.726Z,13.2199
2023-05-09T05:13:55.749Z,13.2147
2023-05-09T05:14:58.796Z,13.2359
2023-05-09T05:16:01.849Z,13.1956
2023-05-09T05:17:04.859Z,13.2485
2023-05-09T05:18:08.029Z,13.2992
2023-05-09T05:19:11.021Z,13.2936
2023-05-09T05:20:14.027Z,13.2936
2023-05-09T05:21:17.158Z,13.3134
2023-05-09T05:22:20.118Z,13.3530
2023-05-09T05:23:23.134Z,13.3827
2023-05-09T05:24:26.141Z,13.4116
2023-05-09T05:25:29.163Z,13.5038
2023-05-09T05:26:32.405Z,13.5713
2023-05-09T05:27:35.450Z,13.5979
2023-05-09T05:28:38.477Z,13.6797
2023-05-09T05:29:41.491Z,13.5897
2023-05-09T05:30:44.512Z,13.6736
2023-05-09T05:31:47.599Z,13.7567
2023-05-09T05:33:51.137Z,13.7381
2023-05-09T05:33:51.137Z,13.7289
2023-05-09T05:34:54.080Z,13.6646
2023-05-09T05:35:57.122Z,13.7059
2023-05-09T05:37:00.139Z,13.7048
2023-05-09T05:38:03.186Z,13.7367
2023-05-09T05:39:06.207Z,13.8201
2023-05-09T05:40:09.208Z,13.8339
2023-05-09T05:41:12.257Z,13.7766
2023-05-09T05:42:15.278Z,13.7477
2023-05-09T05:43:18.301Z,13.6965
2023-05-09T05:44:21.300Z,13.7059
2023-05-09T05:45:24.322Z,13.7717
2023-05-09T05:46:27.804Z,13.8470
2023-05-09T05:47:30.848Z,13.8002
2023-05-09T05:48:34.459Z,13.8121
2023-05-09T05:49:37.503Z,13.8305
2023-05-09T05:50:48.128Z,13.9098
2023-05-09T05:51:43.792Z,13.8514
2023-05-09T05:52:46.822Z,13.9646
2023-05-09T05:53:50.099Z,13.9722
2023-05-09T05:54:53.162Z,13.7072
2023-05-09T05:55:56.402Z,13.6161
2023-05-09T05:56:59.451Z,13.5531
2023-05-09T05:58:02.433Z,13.5567
2023-05-09T05:59:05.444Z,13.5952
2023-05-09T06:00:08.628Z,13.7633
2023-05-09T06:01:12.469Z,13.8438
2023-05-09T06:02:15.615Z,13.7920
2023-05-09T06:03:18.754Z,13.8178
2023-05-09T06:04:21.980Z,14.0118
2023-05-09T06:05:25.164Z,14.1621
2023-05-09T06:06:28.430Z,14.2802
2023-05-09T06:07:31.417Z,14.2084
2023-05-09T06:08:34.539Z,14.2648
2023-05-09T06:09:37.574Z,14.3393
2023-05-09T06:10:40.639Z,14.4767
2023-05-09T06:11:43.713Z,14.4962
2023-05-09T06:12:46.770Z,14.4820
2023-05-09T06:13:49.981Z,14.3848
2023-05-09T06:14:53.048Z,14.3408
2023-05-09T06:15:57.741Z,14.3944
2023-05-09T06:16:57.661Z,14.6044
2023-05-09T06:18:00.710Z,14.6068
2023-05-09T06:19:03.756Z,14.4258
2023-05-09T06:20:06.758Z,14.4374
2023-05-09T06:21:09.890Z,14.1415
2023-05-09T06:22:12.879Z,14.0173
2023-05-09T06:23:15.904Z,13.9728
2023-05-09T06:24:31.867Z,13.9230
2023-05-09T06:25:20.501Z,13.8875
2023-05-09T06:26:23.518Z,13.9422
2023-05-09T06:27:26.559Z,13.9711
2023-05-09T06:28:29.551Z,14.0851
2023-05-09T06:29:31.901Z,14.0487
2023-05-09T06:30:34.913Z,14.0843
2023-05-09T06:31:37.944Z,14.2504
2023-05-09T06:32:41.045Z,14.2951
2023-05-09T06:33:44.041Z,14.4389
2023-05-09T06:34:47.055Z,14.7117
2023-05-09T06:35:50.070Z,15.0626
2023-05-09T06:36:53.153Z,15.0237
2023-05-09T06:37:56.152Z,15.2059
2023-05-09T06:38:59.213Z,15.8868
2023-05-09T06:40:02.246Z,15.7765
2023-05-09T06:41:05.455Z,15.9649
2023-05-09T06:42:08.457Z,15.6396
2023-05-09T06:43:11.526Z,15.8169
2023-05-09T06:44:14.573Z,15.8064
2023-05-09T06:45:17.853Z,15.6495
2023-05-09T06:46:21.183Z,15.9297
2023-05-09T06:47:24.379Z,16.2745
2023-05-09T06:48:27.368Z,16.8136
2023-05-09T06:49:30.392Z,16.4669
2023-05-09T06:50:33.388Z,16.5717
2023-05-09T06:51:36.267Z,16.6915
2023-05-09T06:52:39.327Z,16.3324
2023-05-09T06:53:42.325Z,15.7968
2023-05-09T06:54:45.360Z,16.2690
2023-05-09T06:55:48.390Z,16.2605
2023-05-09T06:56:51.416Z,16.3283
2023-05-09T06:57:54.443Z,16.6372
2023-05-09T06:58:57.457Z,16.4493
2023-05-09T07:00:00.480Z,16.5655
2023-05-09T07:01:03.493Z,16.8291
2023-05-09T07:02:06.595Z,16.6329
2023-05-09T07:03:09.625Z,16.9929
2023-05-09T07:04:12.628Z,16.9461
2023-05-09T07:05:15.849Z,16.7242
2023-05-09T07:06:19.097Z,17.1277
2023-05-09T07:07:22.141Z,17.6274
2023-05-09T07:08:25.181Z,17.8134
2023-05-09T07:09:28.148Z,18.2353
2023-05-09T07:10:31.180Z,19.0973
2023-05-09T07:11:34.187Z,19.8328
2023-05-09T07:13:39.554Z,18.7381
2023-05-09T07:13:39.554Z,20.0191
2023-05-09T07:14:42.572Z,18.1459
2023-05-09T07:15:45.722Z,18.7012
2023-05-09T07:16:48.775Z,18.5933
2023-05-09T07:17:51.786Z,18.7929
2023-05-09T07:18:54.769Z,18.4059
2023-05-09T07:19:57.810Z,18.3848
2023-05-09T07:21:00.827Z,17.7664
2023-05-09T07:22:04.141Z,17.1918
2023-05-09T07:23:07.153Z,17.5424
2023-05-09T07:24:10.256Z,17.3525
2023-05-09T07:25:13.510Z,17.5262
2023-05-09T07:26:16.617Z,18.1666
2023-05-09T07:27:19.657Z,18.1522
2023-05-09T07:28:22.691Z,18.1638
2023-05-09T07:29:25.766Z,17.9054
2023-05-09T07:30:28.750Z,18.0721
2023-05-09T07:31:31.771Z,17.8625
2023-05-09T07:32:34.772Z,17.7452
2023-05-09T07:33:37.789Z,17.7742
2023-05-09T07:34:40.786Z,19.4862
2023-05-09T07:35:43.985Z,20.3924
2023-05-09T07:36:47.000Z,20.9747
2023-05-09T07:37:50.200Z,21.3748
2023-05-09T07:38:53.278Z,21.0049
2023-05-09T07:39:56.058Z,18.1860
2023-05-09T07:40:59.242Z,18.3559
2023-05-09T07:42:02.258Z,17.4255
2023-05-09T07:43:05.313Z,17.2570
2023-05-09T07:44:08.315Z,17.2586
2023-05-09T07:45:11.392Z,17.1448
2023-05-09T07:46:14.715Z,17.4830
2023-05-09T07:47:17.733Z,17.2353
2023-05-09T07:48:20.774Z,16.8800
2023-05-09T07:49:23.797Z,17.1274
2023-05-09T07:50:26.471Z,17.0107
2023-05-09T07:51:29.491Z,17.2166
2023-05-09T07:52:32.564Z,17.6401
2023-05-09T07:53:35.543Z,17.8113
2023-05-09T07:54:38.560Z,18.3740
2023-05-09T07:55:41.648Z,18.0205
2023-05-09T07:56:44.629Z,18.3443
2023-05-09T07:57:47.661Z,17.8781
2023-05-09T07:58:50.717Z,17.1451
2023-05-09T07:59:53.743Z,17.7867
2023-05-09T08:00:56.785Z,18.5662
2023-05-09T08:01:59.842Z,18.9410
2023-05-09T08:03:03.016Z,18.9263
2023-05-09T08:04:06.531Z,19.0855
2023-05-09T08:05:09.570Z,18.9968
2023-05-09T08:06:12.568Z,19.8108
2023-05-09T08:07:15.591Z,20.0077
2023-05-09T08:08:18.597Z,20.0470
2023-05-09T08:09:21.846Z,19.9688
2023-05-09T08:10:24.885Z,19.0565
2023-05-09T08:11:27.927Z,19.6963
2023-05-09T08:12:30.888Z,19.3947
2023-05-09T08:13:33.934Z,19.6611
2023-05-09T08:14:37.003Z,19.5177
2023-05-09T08:15:39.747Z,19.0137
2023-05-09T08:16:42.738Z,18.4720
2023-05-09T08:17:45.853Z,17.3897
2023-05-09T08:18:48.866Z,18.1905
2023-05-09T08:19:51.883Z,18.6520
2023-05-09T08:20:54.894Z,18.5526
2023-05-09T08:21:57.949Z,17.8881
2023-05-09T08:23:00.985Z,18.6009
2023-05-09T08:24:03.985Z,18.8440
2023-05-09T08:25:07.023Z,18.6523
2023-05-09T08:26:10.036Z,18.4948
2023-05-09T08:27:10.307Z,18.6112
2023-05-09T08:28:13.291Z,18.5064
2023-05-09T08:29:16.311Z,18.0223
2023-05-09T08:30:19.331Z,17.8091
2023-05-09T08:31:22.379Z,17.6330
2023-05-09T08:32:25.424Z,17.9241
2023-05-09T08:33:28.456Z,18.1077
2023-05-09T08:34:29.619Z,17.4373
2023-05-09T08:35:32.602Z,17.2469
2023-05-09T08:37:35.764Z,17.6844
2023-05-09T08:37:35.764Z,17.1546
2023-05-09T08:38:38.999Z,17.2664
2023-05-09T08:39:42.025Z,17.6677
2023-05-09T08:40:45.127Z,17.7130
2023-05-09T08:41:48.236Z,18.3129
2023-05-09T08:42:51.451Z,18.4087
2023-05-09T08:43:54.441Z,18.4480
2023-05-09T08:44:57.477Z,18.7098
2023-05-09T08:46:00.676Z,18.7693
2023-05-09T08:47:03.806Z,18.6465
2023-05-09T08:48:07.111Z,18.7968
2023-05-09T08:49:10.512Z,18.8702
2023-05-09T08:50:13.733Z,18.3867
2023-05-09T08:51:17.098Z,18.3286
2023-05-09T08:52:20.121Z,17.5501
2023-05-09T08:53:23.222Z,17.6396
2023-05-09T08:54:26.224Z,17.7837
2023-05-09T08:55:29.259Z,18.2865
2023-05-09T08:56:32.307Z,17.9497
2023-05-09T08:57:35.318Z,17.7950
2023-05-09T08:58:38.370Z,17.4236
2023-05-09T08:59:41.377Z,17.1975
2023-05-09T09:00:44.425Z,17.3300
2023-05-09T09:01:47.523Z,17.7824
2023-05-09T09:02:50.553Z,17.3924
2023-05-09T09:03:53.589Z,17.1505
2023-05-09T09:04:56.705Z,17.1569
2023-05-09T09:05:59.788Z,17.2223
2023-05-09T09:07:02.824Z,17.2914
2023-05-09T09:08:05.853Z,17.5592
2023-05-09T09:09:08.892Z,17.8833
2023-05-09T09:10:11.959Z,18.6262
2023-05-09T09:11:14.951Z,20.3759
2023-05-09T09:12:17.952Z,19.7949
2023-05-09T09:13:21.003Z,18.8996
2023-05-09T09:14:24.077Z,17.9434
2023-05-09T09:15:27.072Z,17.9310
2023-05-09T09:16:30.153Z,18.4517
2023-05-09T09:17:33.232Z,18.6638
2023-05-09T09:18:36.288Z,18.2537
2023-05-09T09:19:39.326Z,18.0923
2023-05-09T09:20:42.394Z,17.7849
2023-05-09T09:21:45.403Z,17.8338
2023-05-09T09:22:48.523Z,18.3660
2023-05-09T09:23:51.533Z,18.7547
2023-05-09T09:24:54.620Z,19.1647
2023-05-09T09:25:59.607Z,19.5346
2023-05-09T09:27:59.449Z,19.9656
2023-05-09T09:27:59.449Z,19.8142
2023-05-09T09:29:02.448Z,19.7597
2023-05-09T09:30:05.526Z,19.9012
2023-05-09T09:31:08.514Z,19.2341
2023-05-09T09:32:11.570Z,19.4256
2023-05-09T09:33:14.724Z,19.5034
2023-05-09T09:34:17.698Z,19.2484
2023-05-09T09:35:20.713Z,20.0148
2023-05-09T09:36:23.740Z,20.2960
2023-05-09T09:37:24.005Z,19.9861
2023-05-09T09:38:30.879Z,19.6443
2023-05-09T09:39:34.015Z,20.2041
2023-05-09T09:40:37.016Z,19.6906
2023-05-09T09:41:40.206Z,19.0529
2023-05-09T09:42:43.238Z,19.3223
2023-05-09T09:43:46.257Z,20.8756
2023-05-09T09:44:49.265Z,22.5351
2023-05-09T09:45:52.431Z,23.0961
2023-05-09T09:46:55.490Z,23.9920
2023-05-09T09:47:58.601Z,23.9014
2023-05-09T09:49:01.865Z,23.4667
2023-05-09T09:50:04.935Z,25.2703
2023-05-09T09:51:08.135Z,25.7117
2023-05-09T09:52:11.182Z,25.0707
2023-05-09T09:53:14.194Z,24.8344
2023-05-09T09:54:18.326Z,25.0872
2023-05-09T09:55:17.669Z,25.1389
2023-05-09T09:56:20.621Z,24.2126
2023-05-09T09:57:23.662Z,23.4500
2023-05-09T09:58:26.694Z,22.9068
2023-05-09T09:59:29.981Z,23.2948
2023-05-09T10:00:32.989Z,22.7657
2023-05-09T10:01:36.116Z,22.1429
2023-05-09T10:02:39.393Z,22.1828
2023-05-09T10:03:42.443Z,22.8763
2023-05-09T10:04:43.573Z,22.1389
2023-05-09T10:05:46.585Z,22.7467
2023-05-09T10:06:49.610Z,22.0369
2023-05-09T10:07:52.674Z,22.0537
2023-05-09T10:08:55.678Z,21.8030
2023-05-09T10:09:57.141Z,21.3921
2023-05-09T10:11:00.159Z,22.6594
2023-05-09T10:12:03.627Z,22.1669
2023-05-09T10:13:06.693Z,22.7849
2023-05-09T10:14:09.748Z,23.5538
2023-05-09T10:15:12.749Z,23.8186
2023-05-09T10:16:35.646Z,23.1056
2023-05-09T10:18:25.759Z,23.4370
2023-05-09T10:18:25.759Z,24.0162
2023-05-09T10:19:28.838Z,23.9572
2023-05-09T10:20:31.906Z,23.4179
2023-05-09T10:21:36.160Z,22.5654
2023-05-09T10:22:36.343Z,23.1152
2023-05-09T10:23:39.065Z,22.8347
2023-05-09T10:24:42.116Z,22.5271
2023-05-09T10:25:45.166Z,23.2688
2023-05-09T10:26:48.519Z,24.3725
2023-05-09T10:27:51.603Z,23.5422
2023-05-09T10:28:54.632Z,23.3094
2023-05-09T10:29:57.933Z,22.4487
2023-05-09T10:31:01.019Z,21.5168
2023-05-09T10:32:04.056Z,22.3993
2023-05-09T10:33:07.159Z,23.5275
2023-05-09T10:34:10.421Z,22.2419
2023-05-09T10:35:13.657Z,21.7986
2023-05-09T10:36:16.869Z,20.6460
2023-05-09T10:37:20.350Z,20.4359
2023-05-09T10:38:23.414Z,20.2859
2023-05-09T10:39:26.728Z,19.9424
2023-05-09T10:40:29.782Z,20.6433
2023-05-09T10:41:32.832Z,21.5699
2023-05-09T10:42:36.129Z,21.0800
2023-05-09T10:43:38.913Z,21.1293
2023-05-09T10:44:41.959Z,21.9167
2023-05-09T10:45:45.031Z,21.6348
2023-05-09T10:46:48.161Z,21.2919
2023-05-09T10:47:51.336Z,21.0002
2023-05-09T10:48:54.439Z,20.9053
2023-05-09T10:50:02.618Z,20.9952
2023-05-09T10:51:05.613Z,21.4847
2023-05-09T10:52:08.695Z,22.1702
2023-05-09T10:53:11.765Z,21.8785
2023-05-09T10:54:14.820Z,22.9731
2023-05-09T10:55:17.908Z,22.8994
2023-05-09T10:56:20.987Z,23.2775
2023-05-09T10:57:24.330Z,23.9174
2023-05-09T10:58:27.404Z,23.5860
2023-05-09T10:59:30.464Z,22.5325
2023-05-09T11:00:33.538Z,23.2509
2023-05-09T11:02:38.292Z,22.2547
2023-05-09T11:02:38.292Z,21.8330
2023-05-09T11:03:41.626Z,21.4593
2023-05-09T11:04:44.774Z,20.8040
2023-05-09T11:05:47.838Z,20.5913
2023-05-09T11:06:50.918Z,21.0517
2023-05-09T11:07:54.108Z,21.0511
2023-05-09T11:08:57.192Z,20.9185
2023-05-09T11:10:00.282Z,21.0633
2023-05-09T11:11:03.368Z,20.7531
2023-05-09T11:13:09.179Z,21.3217
2023-05-09T11:13:09.179Z,20.8089
2023-05-09T11:14:12.221Z,20.2895
2023-05-09T11:15:15.446Z,21.0990
2023-05-09T11:16:18.667Z,21.9354
2023-05-09T11:17:22.072Z,22.0750
2023-05-09T11:18:25.242Z,22.4498
2023-05-09T11:19:28.290Z,23.0257
2023-05-09T11:20:31.394Z,23.1768
2023-05-09T11:21:34.654Z,21.9840
2023-05-09T11:22:37.726Z,22.2500
2023-05-09T11:23:40.805Z,21.6880
2023-05-09T11:24:43.864Z,21.1890
2023-05-09T11:25:46.959Z,21.3025
2023-05-09T11:26:49.984Z,21.5820
2023-05-09T11:27:53.100Z,20.8555
2023-05-09T11:28:56.317Z,20.6523
2023-05-09T11:29:59.370Z,20.5786
2023-05-09T11:31:02.448Z,20.5870
2023-05-09T11:32:05.507Z,20.4722
2023-05-09T11:33:09.144Z,20.7844
2023-05-09T11:34:12.405Z,21.1529
2023-05-09T11:35:15.984Z,20.6422
2023-05-09T11:36:15.625Z,20.9483
2023-05-09T11:37:18.701Z,20.7757
2023-05-09T11:38:29.278Z,21.1931
2023-05-09T11:39:32.368Z,21.9821
2023-05-09T11:40:35.461Z,21.5872
2023-05-09T11:41:38.578Z,21.1128
2023-05-09T11:42:41.594Z,21.3051
2023-05-09T11:43:44.676Z,20.8324
2023-05-09T11:44:47.950Z,21.5738
2023-05-09T11:45:51.062Z,22.0215
2023-05-09T11:46:54.167Z,21.1338
2023-05-09T11:47:57.298Z,21.6212
2023-05-09T11:49:07.784Z,22.0102
2023-05-09T11:50:04.069Z,21.7443
2023-05-09T11:51:07.092Z,20.8607
2023-05-09T11:52:10.237Z,20.7941
2023-05-09T11:53:13.420Z,20.5310
2023-05-09T11:54:16.451Z,21.3544
2023-05-09T11:55:19.748Z,21.8311
2023-05-09T11:56:22.846Z,22.3737
2023-05-09T11:57:25.890Z,23.0345
2023-05-09T11:58:28.999Z,23.4704
2023-05-09T11:59:32.083Z,23.3753
2023-05-09T12:00:35.146Z,23.6510
2023-05-09T12:01:38.216Z,24.0288
2023-05-09T12:02:41.396Z,24.3497
2023-05-09T12:03:44.534Z,23.8293
2023-05-09T12:04:47.648Z,22.6196
2023-05-09T12:05:50.938Z,21.9704
2023-05-09T12:06:54.021Z,22.7508
2023-05-09T12:07:57.090Z,22.5389
2023-05-09T12:09:00.181Z,22.6052
2023-05-09T12:10:03.213Z,22.6961
2023-05-09T12:11:06.278Z,22.4999
2023-05-09T12:12:07.502Z,22.6533
2023-05-09T12:13:10.628Z,22.5471
2023-05-09T12:14:13.752Z,22.3287
2023-05-09T12:15:17.112Z,22.5738
2023-05-09T12:16:17.032Z,23.0219
2023-05-09T12:17:19.854Z,23.4512
2023-05-09T12:18:23.273Z,24.0292
2023-05-09T12:19:26.344Z,23.1770
2023-05-09T12:20:29.388Z,22.1054
2023-05-09T12:21:32.446Z,21.7874
2023-05-09T12:22:35.638Z,21.5193
2023-05-09T12:23:38.699Z,22.3316
2023-05-09T12:24:41.805Z,21.6995
2023-05-09T12:25:44.953Z,21.3925
2023-05-09T12:26:48.000Z,22.0584
2023-05-09T12:27:51.089Z,21.2666
2023-05-09T12:28:54.140Z,21.0814
2023-05-09T12:29:57.202Z,21.9100
2023-05-09T12:31:00.279Z,22.3268
2023-05-09T12:33:03.997Z,22.6608
2023-05-09T12:33:03.997Z,22.3030
2023-05-09T12:34:07.049Z,22.5138
2023-05-09T12:35:10.127Z,22.7420
2023-05-09T12:36:13.207Z,22.4715
2023-05-09T12:37:14.392Z,21.9503
2023-05-09T12:38:17.665Z,22.3210
2023-05-09T12:39:20.704Z,21.9151
2023-05-09T12:40:23.811Z,21.6627
2023-05-09T12:41:36.907Z,21.5430
2023-05-09T12:42:28.424Z,21.5482